Time;durP1;ratioP1;P1;durP2;ratioP2;P2;SDS_P1;SDS_P2;PMS_P1;PMS_P2;Temp;Humidity;BMP_temperature;BMP_pressure;BME280_temperature;BME280_humidity;BME280_pressure;Samples;Min_cycle;Max_cycle;Signal;HPM_P1;HPM_P2
2022/01/28 00:03:11;;;;;;;40.08;20.33;;;;;;;;;;10470488;28;20027;-69
2022/01/28 00:08:11;;;;;;;26.60;17.40;;;;;;;;;;10488431;28;20551;-70
2022/01/28 00:39:33;;;;;;;29.80;13.80;;;;;;;;;;10529738;28;20031;-71
2022/01/28 00:44:34;;;;;;;26.58;14.65;;;;;;;;;;10511672;28;20028;-71
2022/01/28 00:49:34;;;;;;;26.00;12.23;;;;;;;;;;10511361;28;20040;-70
2022/01/28 00:54:34;;;;;;;22.65;14.30;;;;;;;;;;10511450;28;20405;-76
2022/01/28 00:59:35;;;;;;;25.70;15.38;;;;;;;;;;10528227;28;20130;-71
2022/01/28 01:04:35;;;;;;;25.13;12.85;;;;;;;;;;10510872;28;20500;-73
2022/01/28 01:09:35;;;;;;;25.45;17.00;;;;;;;;;;10512303;28;20036;-71
2022/01/28 01:14:36;;;;;;;27.60;15.70;;;;;;;;;;10518547;28;20047;-71
2022/01/28 01:19:41;;;;;;;21.73;15.18;;;;;;;;;;10518036;28;20055;-70
2022/01/28 01:24:51;;;;;;;29.42;16.13;;;;;;;;;;10531522;28;20032;-70
2022/01/28 01:29:51;;;;;;;21.70;15.60;;;;;;;;;;10534806;28;20034;-72
2022/01/28 01:34:51;;;;;;;18.83;14.33;;;;;;;;;;10536112;28;20030;-72
2022/01/28 01:39:53;;;;;;;28.53;13.57;;;;;;;;;;10534718;28;20396;-71
2022/01/28 01:45:37;;;;;;;17.83;14.85;;;;;;;;;;10534239;28;20119;-75
2022/01/28 01:55:38;;;;;;;30.92;18.10;;;;;;;;;;10577990;28;20126;-71
2022/01/28 02:00:38;;;;;;;23.45;13.73;;;;;;;;;;10558606;28;20535;-71
2022/01/28 02:05:39;;;;;;;33.20;14.13;;;;;;;;;;10558663;28;20031;-71
2022/01/28 02:10:39;;;;;;;24.77;15.77;;;;;;;;;;10558600;28;20035;-71
2022/01/28 02:15:39;;;;;;;26.73;15.07;;;;;;;;;;10557919;28;20088;-71
2022/01/28 02:20:43;;;;;;;22.30;13.02;;;;;;;;;;10557381;28;20147;-70
2022/01/28 02:25:44;;;;;;;25.95;12.63;;;;;;;;;;10541046;28;20035;-70
2022/01/28 02:30:44;;;;;;;18.27;13.57;;;;;;;;;;10557379;28;20031;-72
2022/01/28 02:35:45;;;;;;;27.08;15.63;;;;;;;;;;10576005;28;20031;-71
2022/01/28 02:40:50;;;;;;;21.38;13.85;;;;;;;;;;10558318;28;20024;-72
2022/01/28 02:45:53;;;;;;;20.30;13.07;;;;;;;;;;10578452;28;20462;-74
2022/01/28 02:51:03;;;;;;;21.95;12.10;;;;;;;;;;10575183;28;20027;-70
2022/01/28 02:56:13;;;;;;;24.55;16.40;;;;;;;;;;10556207;28;20035;-69
2022/01/28 03:01:15;;;;;;;23.35;12.52;;;;;;;;;;10556468;28;20522;-71
2022/01/28 03:06:16;;;;;;;32.20;16.40;;;;;;;;;;10573860;28;20039;-74
2022/01/28 03:16:28;;;;;;;27.90;13.20;;;;;;;;;;10574152;28;20058;-71
2022/01/28 03:26:29;;;;;;;26.65;17.50;;;;;;;;;;10574622;28;20031;-74
2022/01/28 03:31:29;;;;;;;28.38;15.88;;;;;;;;;;10554901;28;20019;-71
2022/01/28 03:36:30;;;;;;;26.27;15.30;;;;;;;;;;10554392;28;20027;-70
2022/01/28 03:41:30;;;;;;;23.90;13.43;;;;;;;;;;10555140;28;20265;-72
2022/01/28 03:46:31;;;;;;;32.97;14.00;;;;;;;;;;10554590;28;20023;-70
2022/01/28 03:51:31;;;;;;;20.63;15.13;;;;;;;;;;10554186;28;20451;-71
2022/01/28 03:56:31;;;;;;;30.40;16.30;;;;;;;;;;10554848;28;20254;-70
2022/01/28 04:01:36;;;;;;;33.00;13.53;;;;;;;;;;10554349;28;20493;-72
2022/01/28 04:11:57;;;;;;;29.05;11.57;;;;;;;;;;10572489;28;20455;-75
2022/01/28 04:22:17;;;;;;;25.42;16.20;;;;;;;;;;10572209;28;20525;-78
2022/01/28 04:27:18;;;;;;;28.40;17.20;;;;;;;;;;10553383;28;20036;-75
2022/01/28 04:32:19;;;;;;;23.05;13.02;;;;;;;;;;10518180;28;20028;-75
2022/01/28 04:38:14;;;;;;;33.70;17.13;;;;;;;;;;10511937;28;20044;-71
2022/01/28 04:43:12;;;;;;;34.17;14.95;;;;;;;;;;10525967;28;20024;-71
2022/01/28 05:04:03;;;;;;;37.72;15.75;;;;;;;;;;10552031;28;20028;-72
2022/01/28 05:29:56;;;;;;;31.17;21.15;;;;;;;;;;10535986;28;20099;-73
2022/01/28 05:34:56;;;;;;;27.98;13.02;;;;;;;;;;10517650;28;20526;-72
2022/01/28 05:39:57;;;;;;;28.58;15.15;;;;;;;;;;10518231;28;20070;-72
2022/01/28 05:44:57;;;;;;;58.30;14.63;;;;;;;;;;10517413;28;20152;-72
2022/01/28 05:49:57;;;;;;;38.35;17.60;;;;;;;;;;10534296;28;20455;-76
2022/01/28 05:54:58;;;;;;;32.80;14.77;;;;;;;;;;10534477;28;20096;-72
2022/01/28 05:59:59;;;;;;;28.98;13.23;;;;;;;;;;10513986;28;20024;-73
2022/01/28 06:04:59;;;;;;;36.72;16.67;;;;;;;;;;10533408;28;20206;-73
2022/01/28 06:09:59;;;;;;;31.73;16.40;;;;;;;;;;10514741;28;20032;-73
2022/01/28 06:15:00;;;;;;;37.10;14.98;;;;;;;;;;10534811;28;20482;-73
2022/01/28 06:20:04;;;;;;;29.67;19.52;;;;;;;;;;10525904;28;20040;-74
2022/01/28 06:25:05;;;;;;;31.95;14.40;;;;;;;;;;10533170;28;20059;-73
2022/01/28 06:30:06;;;;;;;25.67;14.90;;;;;;;;;;10534975;28;20035;-74
2022/01/28 06:35:09;;;;;;;31.73;17.45;;;;;;;;;;10516358;28;20085;-72
2022/01/28 06:40:14;;;;;;;29.15;14.60;;;;;;;;;;10540300;28;20072;-72
2022/01/28 06:45:14;;;;;;;31.20;15.10;;;;;;;;;;10515597;28;20085;-71
2022/01/28 06:50:14;;;;;;;37.13;13.82;;;;;;;;;;10515030;28;20028;-74
2022/01/28 06:55:16;;;;;;;36.67;14.87;;;;;;;;;;10532918;28;20040;-72
2022/01/28 07:00:16;;;;;;;36.38;13.50;;;;;;;;;;10532773;28;20027;-72
2022/01/28 07:05:17;;;;;;;28.02;13.30;;;;;;;;;;10514463;28;20481;-74
2022/01/28 07:10:17;;;;;;;35.30;12.73;;;;;;;;;;10531047;28;20133;-74
2022/01/28 07:15:17;;;;;;;35.35;14.55;;;;;;;;;;10532326;28;20360;-72
2022/01/28 07:20:18;;;;;;;29.63;14.03;;;;;;;;;;10530926;28;20054;-77
2022/01/28 07:25:18;;;;;;;41.22;14.60;;;;;;;;;;10526557;28;20044;-72
2022/01/28 07:30:18;;;;;;;33.50;14.63;;;;;;;;;;10513553;28;20028;-72
2022/01/28 07:35:19;;;;;;;34.35;15.23;;;;;;;;;;10530999;28;20085;-72
2022/01/28 07:40:19;;;;;;;38.53;16.60;;;;;;;;;;10496654;28;20475;-72
2022/01/28 07:45:19;;;;;;;33.77;14.33;;;;;;;;;;10531012;28;20286;-72
2022/01/28 07:50:20;;;;;;;36.30;14.50;;;;;;;;;;10529466;28;20486;-72
2022/01/28 07:55:20;;;;;;;37.40;13.30;;;;;;;;;;10531879;28;20769;-72
2022/01/28 08:00:26;;;;;;;37.50;14.67;;;;;;;;;;10554067;28;20035;-72
2022/01/28 08:05:26;;;;;;;37.50;12.48;;;;;;;;;;10554103;28;20284;-72
2022/01/28 08:10:27;;;;;;;26.55;12.68;;;;;;;;;;10571869;28;20036;-73
2022/01/28 08:15:27;;;;;;;51.63;14.98;;;;;;;;;;10553737;28;20043;-76
2022/01/28 08:20:27;;;;;;;43.70;14.20;;;;;;;;;;10571727;28;20062;-75
2022/01/28 08:25:29;;;;;;;33.57;13.90;;;;;;;;;;10553806;28;20043;-72
2022/01/28 08:30:29;;;;;;;33.00;12.57;;;;;;;;;;10554381;28;20032;-73
2022/01/28 08:35:32;;;;;;;32.53;12.63;;;;;;;;;;10554518;28;20043;-72
2022/01/28 08:40:33;;;;;;;30.55;13.25;;;;;;;;;;10554464;28;20059;-73
2022/01/28 08:45:33;;;;;;;34.93;13.17;;;;;;;;;;10571731;28;20130;-73
2022/01/28 08:50:34;;;;;;;34.00;12.50;;;;;;;;;;10572163;28;20023;-73
2022/01/28 08:55:34;;;;;;;29.20;12.73;;;;;;;;;;10552044;28;20038;-73
2022/01/28 09:00:35;;;;;;;34.47;14.27;;;;;;;;;;10536685;28;20028;-72
2022/01/28 09:05:35;;;;;;;32.92;13.35;;;;;;;;;;10554579;28;20028;-72
2022/01/28 09:10:43;;;;;;;44.75;14.80;;;;;;;;;;10553484;28;20635;-72
2022/01/28 09:15:43;;;;;;;41.37;14.13;;;;;;;;;;10571951;28;20051;-71
2022/01/28 09:20:43;;;;;;;29.80;11.63;;;;;;;;;;10553493;28;20472;-71
2022/01/28 09:25:44;;;;;;;33.30;12.40;;;;;;;;;;10553603;28;20043;-72
2022/01/28 09:30:44;;;;;;;30.48;13.05;;;;;;;;;;10554581;28;20024;-73
2022/01/28 09:35:45;;;;;;;32.07;11.37;;;;;;;;;;10561719;28;20027;-73
2022/01/28 09:40:45;;;;;;;35.08;12.02;;;;;;;;;;10561811;28;20035;-73
2022/01/28 09:45:46;;;;;;;38.60;12.53;;;;;;;;;;10578451;28;20028;-73
2022/01/28 09:50:47;;;;;;;37.53;13.30;;;;;;;;;;10561931;28;20043;-73
2022/01/28 09:55:47;;;;;;;40.78;14.57;;;;;;;;;;10560298;28;20032;-72
2022/01/28 10:00:48;;;;;;;32.53;12.88;;;;;;;;;;10561115;28;20031;-74
2022/01/28 10:05:50;;;;;;;38.88;14.68;;;;;;;;;;10561339;28;20035;-74
2022/01/28 10:10:54;;;;;;;38.47;15.02;;;;;;;;;;10577414;28;20066;-74
2022/01/28 10:16:00;;;;;;;49.28;16.95;;;;;;;;;;10558374;28;20413;-73
2022/01/28 10:21:00;;;;;;;40.03;15.18;;;;;;;;;;10576506;28;20043;-73
2022/01/28 10:26:01;;;;;;;35.50;14.52;;;;;;;;;;10539988;28;20046;-73
2022/01/28 10:31:04;;;;;;;33.67;15.80;;;;;;;;;;10575257;28;20035;-73
2022/01/28 10:36:04;;;;;;;49.45;18.98;;;;;;;;;;10557310;28;20455;-73
2022/01/28 10:41:15;;;;;;;55.80;19.02;;;;;;;;;;10557273;28;20031;-72
2022/01/28 10:46:27;;;;;;;61.95;21.55;;;;;;;;;;10557888;28;20045;-73
2022/01/28 10:51:37;;;;;;;60.67;22.08;;;;;;;;;;10540242;28;20028;-71
2022/01/28 10:56:47;;;;;;;60.97;24.10;;;;;;;;;;10557174;28;20028;-74
2022/01/28 11:01:48;;;;;;;81.88;27.63;;;;;;;;;;10573963;28;20028;-72
2022/01/28 11:06:50;;;;;;;66.05;29.45;;;;;;;;;;10538967;28;20507;-72
2022/01/28 11:11:51;;;;;;;78.10;30.23;;;;;;;;;;10555730;28;20035;-74
2022/01/28 11:16:51;;;;;;;78.65;33.05;;;;;;;;;;10556303;28;20535;-73
2022/01/28 11:22:08;;;;;;;80.72;31.08;;;;;;;;;;10555698;28;20035;-73
2022/01/28 11:27:10;;;;;;;63.45;25.67;;;;;;;;;;10556387;28;20043;-74
2022/01/28 11:32:14;;;;;;;49.75;19.15;;;;;;;;;;10556995;28;20035;-74
2022/01/28 11:37:14;;;;;;;45.08;16.77;;;;;;;;;;10573704;28;20039;-72
2022/01/28 11:42:17;;;;;;;42.63;18.42;;;;;;;;;;10555698;28;20545;-72
2022/01/28 11:47:22;;;;;;;39.42;16.95;;;;;;;;;;10555309;28;20032;-73
2022/01/28 11:52:24;;;;;;;47.85;17.60;;;;;;;;;;10573420;28;20066;-72
2022/01/28 11:57:26;;;;;;;34.03;14.48;;;;;;;;;;10571878;28;20114;-73
2022/01/28 12:02:27;;;;;;;38.58;14.93;;;;;;;;;;10572538;28;20039;-72
2022/01/28 12:07:29;;;;;;;33.60;14.15;;;;;;;;;;10572778;28;20109;-72
2022/01/28 12:12:47;;;;;;;36.45;11.82;;;;;;;;;;10553985;28;20035;-71
2022/01/28 12:17:49;;;;;;;20.67;8.77;;;;;;;;;;10554622;28;20051;-71
2022/01/28 12:23:08;;;;;;;20.90;9.30;;;;;;;;;;10554672;28;20047;-75
2022/01/28 12:28:26;;;;;;;18.30;8.18;;;;;;;;;;10572578;28;20088;-74
2022/01/28 12:33:27;;;;;;;;;;;;;;;;;;10554309;28;20489;-73
2022/01/28 12:38:30;;;;;;;21.10;7.28;;;;;;;;;;10554579;28;19910;-72
2022/01/28 12:43:31;;;;;;;20.63;7.60;;;;;;;;;;10554441;28;20122;-72
2022/01/28 12:48:31;;;;;;;18.83;7.65;;;;;;;;;;10553409;28;20034;-73
2022/01/28 12:53:35;;;;;;;14.48;4.35;;;;;;;;;;10575163;28;20410;-73
2022/01/28 12:58:39;;;;;;;8.05;4.38;;;;;;;;;;10568743;28;20088;-73
2022/01/28 13:03:57;;;;;;;12.35;3.25;;;;;;;;;;10511406;28;20516;-73
2022/01/28 13:08:57;;;;;;;7.70;3.42;;;;;;;;;;10538590;28;20119;-71
2022/01/28 13:13:58;;;;;;;9.48;3.10;;;;;;;;;;10570652;28;20027;-73
2022/01/28 13:18:59;;;;;;;9.30;3.97;;;;;;;;;;10536487;28;20035;-74
2022/01/28 13:24:06;;;;;;;7.47;3.20;;;;;;;;;;10502533;28;20098;-72
2022/01/28 13:29:10;;;;;;;10.17;4.43;;;;;;;;;;10509265;28;20032;-74
2022/01/28 13:34:11;;;;;;;10.38;4.22;;;;;;;;;;10536710;28;20055;-73
2022/01/28 13:39:18;;;;;;;9.07;5.63;;;;;;;;;;10536606;28;20111;-73
2022/01/28 13:44:26;;;;;;;10.70;4.85;;;;;;;;;;10523610;28;20127;-73
2022/01/28 13:49:31;;;;;;;13.03;6.20;;;;;;;;;;10560306;28;20028;-73
2022/01/28 13:54:31;;;;;;;14.32;5.57;;;;;;;;;;10559869;28;20359;-71
2022/01/28 13:59:32;;;;;;;17.07;6.57;;;;;;;;;;10577497;28;20039;-71
2022/01/28 14:04:37;;;;;;;20.48;6.53;;;;;;;;;;10577223;28;20620;-72
2022/01/28 14:09:50;;;;;;;9.50;5.07;;;;;;;;;;10541280;28;20510;-72
2022/01/28 14:14:57;;;;;;;12.35;4.93;;;;;;;;;;10558920;28;20040;-71
2022/01/28 14:19:57;;;;;;;9.23;3.92;;;;;;;;;;10560226;28;20123;-73
2022/01/28 14:24:58;;;;;;;9.40;4.32;;;;;;;;;;10560403;28;20043;-72
2022/01/28 14:30:16;;;;;;;14.17;4.17;;;;;;;;;;10557844;28;20500;-70
2022/01/28 14:35:17;;;;;;;8.35;5.07;;;;;;;;;;10576981;28;20024;-72
2022/01/28 14:40:17;;;;;;;12.05;5.22;;;;;;;;;;10557942;28;20046;-72
2022/01/28 14:45:18;;;;;;;13.70;6.15;;;;;;;;;;10576606;28;20031;-72
2022/01/28 14:50:18;;;;;;;10.30;6.10;;;;;;;;;;10541224;28;20020;-72
2022/01/28 14:55:19;;;;;;;13.00;5.70;;;;;;;;;;10557879;28;20027;-72
2022/01/28 15:00:19;;;;;;;13.85;6.35;;;;;;;;;;10557935;28;20102;-73
2022/01/28 15:05:20;;;;;;;11.63;5.20;;;;;;;;;;10557343;28;20042;-70
2022/01/28 15:10:27;;;;;;;11.43;4.37;;;;;;;;;;10575941;28;20096;-71
2022/01/28 15:15:27;;;;;;;10.07;5.40;;;;;;;;;;10574153;28;20362;-71
2022/01/28 15:20:28;;;;;;;13.23;5.72;;;;;;;;;;10574453;28;20071;-73
2022/01/28 15:25:28;;;;;;;11.35;4.72;;;;;;;;;;10574444;28;20093;-71
2022/01/28 15:34:11;;;;;;;11.50;3.83;;;;;;;;;;10555427;28;20019;-76
2022/01/28 15:36:00;;;;;;;8.57;5.25;;;;;;;;;;10574899;28;20266;-72
2022/01/28 15:41:05;;;;;;;8.60;4.93;;;;;;;;;;10529616;28;20089;-71
2022/01/28 15:46:05;;;;;;;8.00;4.38;;;;;;;;;;10533617;28;20032;-72
2022/01/28 15:51:07;;;;;;;9.27;4.60;;;;;;;;;;10512941;28;20027;-73
2022/01/28 15:56:07;;;;;;;7.53;4.22;;;;;;;;;;10513400;28;20066;-73
2022/01/28 16:01:07;;;;;;;7.00;3.57;;;;;;;;;;10530107;28;20067;-73
2022/01/28 16:06:08;;;;;;;6.30;3.33;;;;;;;;;;10530573;28;20042;-76
2022/01/28 16:21:09;;;;;;;7.57;4.18;;;;;;;;;;10529970;28;20043;-73
2022/01/28 16:26:09;;;;;;;5.47;3.25;;;;;;;;;;10528032;28;20046;-72
2022/01/28 16:31:10;;;;;;;7.22;4.18;;;;;;;;;;10511415;28;20035;-77
2022/01/28 16:36:10;;;;;;;9.10;4.38;;;;;;;;;;10529298;28;20047;-75
2022/01/28 16:41:13;;;;;;;6.47;3.72;;;;;;;;;;10514593;28;20032;-75
2022/01/28 16:46:13;;;;;;;6.40;3.22;;;;;;;;;;10537953;28;20024;-71
2022/01/28 16:51:13;;;;;;;8.65;4.40;;;;;;;;;;10537083;28;20042;-76
2022/01/28 16:56:15;;;;;;;7.68;4.45;;;;;;;;;;10536008;28;20032;-75
2022/01/28 17:01:16;;;;;;;7.32;4.18;;;;;;;;;;10535964;28;20043;-73
2022/01/28 17:06:17;;;;;;;10.00;4.45;;;;;;;;;;10519061;28;20032;-73
2022/01/28 17:16:18;;;;;;;13.73;4.70;;;;;;;;;;10540400;28;20046;-74
2022/01/28 17:21:19;;;;;;;7.72;4.25;;;;;;;;;;10521058;28;20143;-75
2022/01/28 17:26:19;;;;;;;6.38;3.03;;;;;;;;;;10539188;28;20482;-74
2022/01/28 17:31:20;;;;;;;6.80;3.47;;;;;;;;;;10536922;28;20383;-73
2022/01/28 17:36:20;;;;;;;6.30;3.67;;;;;;;;;;10519012;28;20119;-72
2022/01/28 17:41:21;;;;;;;4.65;3.15;;;;;;;;;;10517999;28;20063;-75
2022/01/28 17:46:21;;;;;;;7.65;3.25;;;;;;;;;;10536142;28;20032;-72
2022/01/28 17:51:21;;;;;;;6.95;3.90;;;;;;;;;;10549368;28;20030;-73
2022/01/28 17:56:22;;;;;;;6.60;3.90;;;;;;;;;;10533849;28;20118;-74
2022/01/28 18:01:22;;;;;;;5.03;2.97;;;;;;;;;;10539536;28;20031;-75
2022/01/28 18:06:23;;;;;;;11.60;3.97;;;;;;;;;;10558596;28;20495;-73
2022/01/28 18:11:23;;;;;;;7.73;4.13;;;;;;;;;;10558468;28;20031;-72
2022/01/28 18:16:24;;;;;;;4.72;2.80;;;;;;;;;;10576684;28;20269;-73
2022/01/28 18:21:24;;;;;;;5.70;3.13;;;;;;;;;;10536323;28;20497;-73
2022/01/28 18:26:24;;;;;;;6.45;3.10;;;;;;;;;;10532732;28;20043;-72
2022/01/28 18:31:25;;;;;;;6.68;3.15;;;;;;;;;;10546509;28;20039;-72
2022/01/28 18:36:25;;;;;;;7.43;3.30;;;;;;;;;;10539812;28;20039;-72
2022/01/28 18:41:26;;;;;;;5.87;3.23;;;;;;;;;;10557366;28;20035;-73
2022/01/28 18:46:31;;;;;;;9.63;3.97;;;;;;;;;;10557393;28;20040;-72
2022/01/28 18:51:31;;;;;;;7.00;3.97;;;;;;;;;;10557827;28;20578;-72
2022/01/28 18:56:31;;;;;;;4.20;2.70;;;;;;;;;;10557208;28;20044;-73
2022/01/28 19:01:32;;;;;;;7.65;3.83;;;;;;;;;;10535307;28;20092;-71
2022/01/28 19:06:32;;;;;;;8.10;3.57;;;;;;;;;;10534758;28;20032;-71
2022/01/28 19:11:36;;;;;;;8.57;3.87;;;;;;;;;;10542355;28;20292;-73
2022/01/28 19:16:37;;;;;;;9.18;3.92;;;;;;;;;;10559412;28;20031;-72
2022/01/28 19:21:38;;;;;;;9.18;3.90;;;;;;;;;;10521789;28;20060;-73
2022/01/28 19:26:38;;;;;;;7.28;3.60;;;;;;;;;;10546368;28;20043;-72
2022/01/28 19:31:40;;;;;;;5.37;3.43;;;;;;;;;;10573880;28;20397;-71
2022/01/28 19:36:40;;;;;;;10.75;4.40;;;;;;;;;;10534490;28;20031;-72
2022/01/28 19:41:40;;;;;;;9.88;4.38;;;;;;;;;;10518719;28;20413;-72
2022/01/28 19:46:41;;;;;;;10.52;5.10;;;;;;;;;;10513229;28;20031;-73
2022/01/28 19:51:42;;;;;;;8.30;4.33;;;;;;;;;;10529554;28;20413;-75
2022/01/28 19:56:42;;;;;;;12.18;4.82;;;;;;;;;;10525962;28;20375;-70
2022/01/28 20:01:43;;;;;;;11.43;5.27;;;;;;;;;;10536639;28;20282;-72
2022/01/28 20:06:43;;;;;;;7.93;5.30;;;;;;;;;;10527664;28;20431;-71
2022/01/28 20:11:43;;;;;;;9.23;5.32;;;;;;;;;;10527173;28;20293;-71
2022/01/28 20:16:44;;;;;;;10.02;4.53;;;;;;;;;;10529137;28;20047;-72
2022/01/28 20:21:44;;;;;;;8.35;4.20;;;;;;;;;;10554669;28;20055;-71
2022/01/28 20:26:44;;;;;;;9.80;4.30;;;;;;;;;;10569488;28;20040;-73
2022/01/28 20:31:46;;;;;;;8.80;4.78;;;;;;;;;;10537727;28;20070;-76
2022/01/28 20:36:46;;;;;;;10.88;5.22;;;;;;;;;;10510717;28;20128;-77
2022/01/28 20:41:49;;;;;;;7.37;3.80;;;;;;;;;;10527385;28;20413;-72
2022/01/28 20:46:49;;;;;;;8.35;5.03;;;;;;;;;;10526713;28;20879;-70
2022/01/28 20:51:50;;;;;;;8.87;4.80;;;;;;;;;;10558183;28;20119;-72
2022/01/28 20:56:50;;;;;;;13.73;4.90;;;;;;;;;;10526023;28;20525;-72
2022/01/28 21:01:51;;;;;;;8.57;5.45;;;;;;;;;;10526614;28;20685;-71
2022/01/28 21:06:53;;;;;;;10.35;4.25;;;;;;;;;;10509535;28;20032;-73
2022/01/28 21:11:53;;;;;;;6.53;4.03;;;;;;;;;;10509800;28;20115;-71
2022/01/28 21:16:53;;;;;;;13.02;4.53;;;;;;;;;;10526736;28;20569;-71
2022/01/28 21:21:53;;;;;;;8.23;4.47;;;;;;;;;;10509875;28;20048;-70
2022/01/28 21:26:54;;;;;;;6.30;3.92;;;;;;;;;;10512298;28;20036;-72
2022/01/28 21:31:54;;;;;;;7.60;4.38;;;;;;;;;;10516168;28;20078;-72
2022/01/28 21:36:54;;;;;;;7.57;4.45;;;;;;;;;;10517109;28;20642;-72
2022/01/28 21:41:55;;;;;;;10.68;5.32;;;;;;;;;;10535094;28;20046;-71
2022/01/28 21:46:55;;;;;;;10.70;5.50;;;;;;;;;;10534806;28;20409;-70
2022/01/28 21:51:55;;;;;;;12.45;5.32;;;;;;;;;;10548195;28;20034;-75
2022/01/28 21:56:56;;;;;;;9.83;4.97;;;;;;;;;;10553051;28;20090;-71
2022/01/28 22:01:56;;;;;;;9.90;5.53;;;;;;;;;;10534659;28;20266;-72
2022/01/28 22:06:56;;;;;;;10.55;4.78;;;;;;;;;;10533026;28;20050;-72
2022/01/28 22:11:56;;;;;;;10.77;5.18;;;;;;;;;;10516162;28;20032;-72
2022/01/28 22:16:57;;;;;;;6.45;3.92;;;;;;;;;;10515775;28;20028;-72
2022/01/28 22:22:00;;;;;;;12.45;6.18;;;;;;;;;;10532096;28;20497;-71
2022/01/28 22:27:01;;;;;;;11.32;4.93;;;;;;;;;;10515366;28;20097;-72
2022/01/28 22:32:01;;;;;;;11.93;5.15;;;;;;;;;;10533084;28;20451;-72
2022/01/28 22:37:02;;;;;;;16.93;5.23;;;;;;;;;;10532627;28;20105;-71
2022/01/28 22:42:03;;;;;;;8.00;4.30;;;;;;;;;;10514596;28;20294;-70
2022/01/28 22:47:03;;;;;;;9.57;5.65;;;;;;;;;;10532795;28;20093;-72
2022/01/28 22:52:04;;;;;;;11.80;5.33;;;;;;;;;;10565872;28;20100;-71
2022/01/28 22:57:04;;;;;;;9.60;4.70;;;;;;;;;;10517783;28;20032;-71
2022/01/28 23:02:04;;;;;;;10.52;5.30;;;;;;;;;;10530513;28;20263;-72
2022/01/28 23:07:12;;;;;;;9.83;4.90;;;;;;;;;;10539829;28;20039;-70
2022/01/28 23:12:12;;;;;;;8.67;4.10;;;;;;;;;;10543661;28;20032;-72
2022/01/28 23:17:14;;;;;;;9.13;4.37;;;;;;;;;;10559277;28;20756;-75
2022/01/28 23:22:14;;;;;;;8.27;3.88;;;;;;;;;;10512695;28;20290;-71
2022/01/28 23:27:16;;;;;;;12.13;5.43;;;;;;;;;;10486420;28;20028;-71
2022/01/28 23:32:17;;;;;;;7.72;4.15;;;;;;;;;;10471352;28;20047;-71
2022/01/28 23:37:18;;;;;;;10.45;4.45;;;;;;;;;;10470826;28;20105;-73
2022/01/28 23:42:18;;;;;;;8.75;3.65;;;;;;;;;;10470847;28;20101;-74
2022/01/28 23:47:18;;;;;;;6.57;3.25;;;;;;;;;;10470220;28;20063;-70
2022/01/28 23:52:19;;;;;;;6.68;3.35;;;;;;;;;;10504141;28;20032;-73
2022/01/28 23:57:19;;;;;;;8.88;3.80;;;;;;;;;;10530030;28;20036;-75
